sensor_id;sensor_type;location;lat;lon;timestamp;P1;durP1;ratioP1;P2;durP2;ratioP2
13807;SDS011;40769;51.512;5.494;2022-12-29T00:02:14;1.48;;;1.38;;
13807;SDS011;40769;51.512;5.494;2022-12-29T00:04:40;1.08;;;1.00;;
13807;SDS011;40769;51.512;5.494;2022-12-29T00:07:06;1.10;;;1.00;;
13807;SDS011;40769;51.512;5.494;2022-12-29T00:09:32;1.13;;;0.80;;
13807;SDS011;40769;51.512;5.494;2022-12-29T00:11:59;0.52;;;0.50;;
13807;SDS011;40769;51.512;5.494;2022-12-29T00:14:26;0.60;;;0.40;;
13807;SDS011;40769;51.512;5.494;2022-12-29T00:17:10;1.15;;;0.70;;
13807;SDS011;40769;51.512;5.494;2022-12-29T00:19:36;0.90;;;0.50;;
13807;SDS011;40769;51.512;5.494;2022-12-29T00:22:20;0.88;;;0.63;;
13807;SDS011;40769;51.512;5.494;2022-12-29T00:25:05;0.60;;;0.40;;
13807;SDS011;40769;51.512;5.494;2022-12-29T00:27:51;0.50;;;0.45;;
13807;SDS011;40769;51.512;5.494;2022-12-29T00:30:35;1.15;;;0.60;;
13807;SDS011;40769;51.512;5.494;2022-12-29T00:33:21;1.00;;;0.50;;
13807;SDS011;40769;51.512;5.494;2022-12-29T00:36:11;0.50;;;0.40;;
13807;SDS011;40769;51.512;5.494;2022-12-29T00:38:38;1.02;;;0.60;;
13807;SDS011;40769;51.512;5.494;2022-12-29T00:41:25;1.02;;;0.60;;
13807;SDS011;40769;51.512;5.494;2022-12-29T00:44:10;0.50;;;0.50;;
13807;SDS011;40769;51.512;5.494;2022-12-29T00:46:37;0.77;;;0.75;;
13807;SDS011;40769;51.512;5.494;2022-12-29T00:49:08;0.70;;;0.70;;
13807;SDS011;40769;51.512;5.494;2022-12-29T00:51:54;1.20;;;0.98;;
13807;SDS011;40769;51.512;5.494;2022-12-29T00:54:20;2.65;;;1.40;;
13807;SDS011;40769;51.512;5.494;2022-12-29T00:56:47;1.63;;;1.52;;
13807;SDS011;40769;51.512;5.494;2022-12-29T00:59:13;1.70;;;1.60;;
13807;SDS011;40769;51.512;5.494;2022-12-29T01:01:39;2.00;;;1.80;;
13807;SDS011;40769;51.512;5.494;2022-12-29T01:04:06;2.40;;;1.60;;
13807;SDS011;40769;51.512;5.494;2022-12-29T01:06:32;1.73;;;1.63;;
13807;SDS011;40769;51.512;5.494;2022-12-29T01:08:58;1.70;;;1.60;;
13807;SDS011;40769;51.512;5.494;2022-12-29T01:11:42;2.30;;;1.42;;
13807;SDS011;40769;51.512;5.494;2022-12-29T01:14:08;2.47;;;1.45;;
13807;SDS011;40769;51.512;5.494;2022-12-29T01:16:33;1.60;;;1.50;;
13807;SDS011;40769;51.512;5.494;2022-12-29T01:19:01;1.42;;;1.10;;
13807;SDS011;40769;51.512;5.494;2022-12-29T01:21:27;0.95;;;0.93;;
13807;SDS011;40769;51.512;5.494;2022-12-29T01:23:52;1.25;;;1.15;;
13807;SDS011;40769;51.512;5.494;2022-12-29T01:26:18;1.00;;;0.90;;
13807;SDS011;40769;51.512;5.494;2022-12-29T01:28:44;1.02;;;0.93;;
13807;SDS011;40769;51.512;5.494;2022-12-29T01:31:11;1.02;;;0.93;;
13807;SDS011;40769;51.512;5.494;2022-12-29T01:33:38;0.70;;;0.60;;
13807;SDS011;40769;51.512;5.494;2022-12-29T01:36:05;2.15;;;1.15;;
13807;SDS011;40769;51.512;5.494;2022-12-29T01:38:32;0.98;;;0.90;;
13807;SDS011;40769;51.512;5.494;2022-12-29T01:40:59;1.23;;;0.93;;
13807;SDS011;40769;51.512;5.494;2022-12-29T01:46:33;0.93;;;0.82;;
13807;SDS011;40769;51.512;5.494;2022-12-29T01:49:17;0.70;;;0.70;;
13807;SDS011;40769;51.512;5.494;2022-12-29T01:51:50;0.73;;;0.70;;
13807;SDS011;40769;51.512;5.494;2022-12-29T01:54:21;1.33;;;0.70;;
13807;SDS011;40769;51.512;5.494;2022-12-29T01:56:50;1.33;;;0.70;;
13807;SDS011;40769;51.512;5.494;2022-12-29T01:59:18;1.38;;;0.60;;
13807;SDS011;40769;51.512;5.494;2022-12-29T02:01:49;1.85;;;0.80;;
13807;SDS011;40769;51.512;5.494;2022-12-29T02:04:15;0.65;;;0.50;;
13807;SDS011;40769;51.512;5.494;2022-12-29T02:06:43;1.23;;;0.80;;
13807;SDS011;40769;51.512;5.494;2022-12-29T02:09:14;0.70;;;0.60;;
13807;SDS011;40769;51.512;5.494;2022-12-29T02:11:40;2.42;;;0.90;;
13807;SDS011;40769;51.512;5.494;2022-12-29T02:14:09;0.93;;;0.60;;
13807;SDS011;40769;51.512;5.494;2022-12-29T02:16:40;0.93;;;0.60;;
13807;SDS011;40769;51.512;5.494;2022-12-29T02:24:30;0.93;;;0.60;;
13807;SDS011;40769;51.512;5.494;2022-12-29T02:35:09;1.65;;;0.60;;
13807;SDS011;40769;51.512;5.494;2022-12-29T02:38:12;2.88;;;0.65;;
13807;SDS011;40769;51.512;5.494;2022-12-29T02:40:43;1.60;;;0.65;;
13807;SDS011;40769;51.512;5.494;2022-12-29T02:45:58;0.93;;;0.63;;
13807;SDS011;40769;51.512;5.494;2022-12-29T02:48:30;1.63;;;0.68;;
13807;SDS011;40769;51.512;5.494;2022-12-29T02:51:06;0.93;;;0.60;;
13807;SDS011;40769;51.512;5.494;2022-12-29T02:53:43;1.23;;;0.60;;
13807;SDS011;40769;51.512;5.494;2022-12-29T02:56:28;1.00;;;0.80;;
13807;SDS011;40769;51.512;5.494;2022-12-29T02:58:53;0.88;;;0.55;;
13807;SDS011;40769;51.512;5.494;2022-12-29T03:04:02;1.52;;;0.93;;
13807;SDS011;40769;51.512;5.494;2022-12-29T03:06:34;1.25;;;0.70;;
13807;SDS011;40769;51.512;5.494;2022-12-29T03:11:50;1.05;;;0.60;;
13807;SDS011;40769;51.512;5.494;2022-12-29T03:14:33;0.98;;;0.65;;
13807;SDS011;40769;51.512;5.494;2022-12-29T03:17:28;1.50;;;0.70;;
13807;SDS011;40769;51.512;5.494;2022-12-29T03:20:04;0.75;;;0.65;;
13807;SDS011;40769;51.512;5.494;2022-12-29T03:22:34;0.95;;;0.65;;
13807;SDS011;40769;51.512;5.494;2022-12-29T03:25:05;1.45;;;0.65;;
13807;SDS011;40769;51.512;5.494;2022-12-29T03:27:38;1.38;;;0.50;;
13807;SDS011;40769;51.512;5.494;2022-12-29T03:30:07;1.42;;;0.70;;
13807;SDS011;40769;51.512;5.494;2022-12-29T03:35:34;1.10;;;0.90;;
13807;SDS011;40769;51.512;5.494;2022-12-29T03:41:06;0.50;;;0.50;;
13807;SDS011;40769;51.512;5.494;2022-12-29T03:43:35;2.05;;;0.93;;
13807;SDS011;40769;51.512;5.494;2022-12-29T03:46:01;1.08;;;0.55;;
13807;SDS011;40769;51.512;5.494;2022-12-29T03:48:27;1.02;;;0.80;;
13807;SDS011;40769;51.512;5.494;2022-12-29T03:50:52;1.15;;;0.63;;
13807;SDS011;40769;51.512;5.494;2022-12-29T03:53:18;1.30;;;0.80;;
13807;SDS011;40769;51.512;5.494;2022-12-29T03:55:44;1.52;;;0.80;;
13807;SDS011;40769;51.512;5.494;2022-12-29T03:58:09;1.48;;;0.73;;
13807;SDS011;40769;51.512;5.494;2022-12-29T04:00:35;1.02;;;0.55;;
13807;SDS011;40769;51.512;5.494;2022-12-29T04:03:01;3.17;;;0.95;;
13807;SDS011;40769;51.512;5.494;2022-12-29T04:05:26;1.30;;;0.60;;
13807;SDS011;40769;51.512;5.494;2022-12-29T04:07:52;1.35;;;0.70;;
13807;SDS011;40769;51.512;5.494;2022-12-29T04:10:18;1.05;;;0.65;;
13807;SDS011;40769;51.512;5.494;2022-12-29T04:12:43;2.38;;;0.77;;
13807;SDS011;40769;51.512;5.494;2022-12-29T04:15:11;2.17;;;1.10;;
13807;SDS011;40769;51.512;5.494;2022-12-29T04:17:36;1.63;;;0.70;;
13807;SDS011;40769;51.512;5.494;2022-12-29T04:20:03;1.55;;;0.73;;
13807;SDS011;40769;51.512;5.494;2022-12-29T04:22:48;1.30;;;0.60;;
13807;SDS011;40769;51.512;5.494;2022-12-29T04:25:13;1.13;;;0.75;;
13807;SDS011;40769;51.512;5.494;2022-12-29T04:27:39;1.38;;;0.70;;
13807;SDS011;40769;51.512;5.494;2022-12-29T04:30:04;1.83;;;0.70;;
13807;SDS011;40769;51.512;5.494;2022-12-29T04:32:30;2.65;;;0.88;;
13807;SDS011;40769;51.512;5.494;2022-12-29T04:34:56;1.60;;;0.80;;
13807;SDS011;40769;51.512;5.494;2022-12-29T04:37:22;2.22;;;0.80;;
13807;SDS011;40769;51.512;5.494;2022-12-29T04:39:47;1.63;;;0.80;;
13807;SDS011;40769;51.512;5.494;2022-12-29T04:42:13;2.58;;;0.80;;
13807;SDS011;40769;51.512;5.494;2022-12-29T04:44:38;1.83;;;0.95;;
13807;SDS011;40769;51.512;5.494;2022-12-29T04:47:04;1.58;;;0.82;;
13807;SDS011;40769;51.512;5.494;2022-12-29T04:49:29;2.30;;;0.90;;
13807;SDS011;40769;51.512;5.494;2022-12-29T04:51:55;2.00;;;0.80;;
13807;SDS011;40769;51.512;5.494;2022-12-29T04:54:21;3.65;;;1.00;;
13807;SDS011;40769;51.512;5.494;2022-12-29T04:56:46;2.55;;;0.80;;
13807;SDS011;40769;51.512;5.494;2022-12-29T04:59:12;1.55;;;0.85;;
13807;SDS011;40769;51.512;5.494;2022-12-29T05:01:39;1.85;;;1.00;;
13807;SDS011;40769;51.512;5.494;2022-12-29T05:04:05;2.90;;;0.77;;
13807;SDS011;40769;51.512;5.494;2022-12-29T05:06:31;1.92;;;0.93;;
13807;SDS011;40769;51.512;5.494;2022-12-29T05:08:56;2.25;;;1.10;;
13807;SDS011;40769;51.512;5.494;2022-12-29T05:11:22;3.25;;;1.00;;
13807;SDS011;40769;51.512;5.494;2022-12-29T05:13:47;3.03;;;1.00;;
13807;SDS011;40769;51.512;5.494;2022-12-29T05:16:13;4.07;;;1.13;;
13807;SDS011;40769;51.512;5.494;2022-12-29T05:18:38;2.45;;;0.88;;
13807;SDS011;40769;51.512;5.494;2022-12-29T05:21:04;3.67;;;1.15;;
13807;SDS011;40769;51.512;5.494;2022-12-29T05:23:30;3.63;;;0.95;;
13807;SDS011;40769;51.512;5.494;2022-12-29T05:25:55;1.75;;;0.60;;
13807;SDS011;40769;51.512;5.494;2022-12-29T05:28:21;1.83;;;0.77;;
13807;SDS011;40769;51.512;5.494;2022-12-29T05:30:50;2.45;;;0.93;;
13807;SDS011;40769;51.512;5.494;2022-12-29T05:33:19;1.92;;;0.88;;
13807;SDS011;40769;51.512;5.494;2022-12-29T05:35:45;1.23;;;0.77;;
13807;SDS011;40769;51.512;5.494;2022-12-29T05:38:11;1.42;;;1.02;;
13807;SDS011;40769;51.512;5.494;2022-12-29T05:40:38;1.65;;;0.88;;
13807;SDS011;40769;51.512;5.494;2022-12-29T05:43:04;3.22;;;1.02;;
13807;SDS011;40769;51.512;5.494;2022-12-29T05:45:29;1.55;;;0.70;;
13807;SDS011;40769;51.512;5.494;2022-12-29T05:47:55;1.90;;;1.00;;
13807;SDS011;40769;51.512;5.494;2022-12-29T05:50:20;2.92;;;0.98;;
13807;SDS011;40769;51.512;5.494;2022-12-29T05:52:46;1.27;;;0.68;;
13807;SDS011;40769;51.512;5.494;2022-12-29T05:55:12;1.90;;;0.80;;
13807;SDS011;40769;51.512;5.494;2022-12-29T05:57:37;2.35;;;0.77;;
13807;SDS011;40769;51.512;5.494;2022-12-29T06:00:03;2.08;;;0.90;;
13807;SDS011;40769;51.512;5.494;2022-12-29T06:02:30;1.20;;;0.75;;
13807;SDS011;40769;51.512;5.494;2022-12-29T06:04:56;2.38;;;0.82;;
13807;SDS011;40769;51.512;5.494;2022-12-29T06:07:21;3.75;;;1.33;;
13807;SDS011;40769;51.512;5.494;2022-12-29T06:09:47;2.50;;;1.00;;
13807;SDS011;40769;51.512;5.494;2022-12-29T06:12:13;1.75;;;0.95;;
13807;SDS011;40769;51.512;5.494;2022-12-29T06:14:38;2.22;;;0.75;;
13807;SDS011;40769;51.512;5.494;2022-12-29T06:17:04;2.85;;;1.00;;
13807;SDS011;40769;51.512;5.494;2022-12-29T06:19:29;3.33;;;0.90;;
13807;SDS011;40769;51.512;5.494;2022-12-29T06:21:55;2.80;;;1.10;;
13807;SDS011;40769;51.512;5.494;2022-12-29T06:24:21;3.05;;;0.90;;
13807;SDS011;40769;51.512;5.494;2022-12-29T06:26:46;2.03;;;0.75;;
13807;SDS011;40769;51.512;5.494;2022-12-29T06:29:12;1.33;;;0.85;;
13807;SDS011;40769;51.512;5.494;2022-12-29T06:31:41;2.83;;;0.98;;
13807;SDS011;40769;51.512;5.494;2022-12-29T06:34:08;1.58;;;0.80;;
13807;SDS011;40769;51.512;5.494;2022-12-29T06:36:34;2.83;;;0.90;;
13807;SDS011;40769;51.512;5.494;2022-12-29T06:38:59;1.80;;;1.10;;
13807;SDS011;40769;51.512;5.494;2022-12-29T06:41:25;3.08;;;1.00;;
13807;SDS011;40769;51.512;5.494;2022-12-29T06:43:51;2.15;;;1.00;;
13807;SDS011;40769;51.512;5.494;2022-12-29T06:46:16;4.50;;;1.20;;
13807;SDS011;40769;51.512;5.494;2022-12-29T06:48:42;2.22;;;1.08;;
13807;SDS011;40769;51.512;5.494;2022-12-29T06:51:08;3.53;;;1.10;;
13807;SDS011;40769;51.512;5.494;2022-12-29T06:53:33;3.00;;;1.10;;
13807;SDS011;40769;51.512;5.494;2022-12-29T06:55:59;3.58;;;1.30;;
13807;SDS011;40769;51.512;5.494;2022-12-29T06:58:25;3.10;;;1.40;;
13807;SDS011;40769;51.512;5.494;2022-12-29T07:00:50;2.70;;;1.00;;
13807;SDS011;40769;51.512;5.494;2022-12-29T07:03:16;2.03;;;1.00;;
13807;SDS011;40769;51.512;5.494;2022-12-29T07:05:41;2.40;;;0.82;;
13807;SDS011;40769;51.512;5.494;2022-12-29T07:08:07;3.80;;;1.30;;
13807;SDS011;40769;51.512;5.494;2022-12-29T07:10:33;3.72;;;1.13;;
13807;SDS011;40769;51.512;5.494;2022-12-29T07:12:59;3.00;;;1.30;;
13807;SDS011;40769;51.512;5.494;2022-12-29T07:15:25;3.80;;;1.30;;
13807;SDS011;40769;51.512;5.494;2022-12-29T07:17:50;3.58;;;1.42;;
13807;SDS011;40769;51.512;5.494;2022-12-29T07:20:16;4.10;;;1.38;;
13807;SDS011;40769;51.512;5.494;2022-12-29T07:22:42;3.78;;;1.35;;
13807;SDS011;40769;51.512;5.494;2022-12-29T07:25:08;3.63;;;1.10;;
13807;SDS011;40769;51.512;5.494;2022-12-29T07:27:33;3.28;;;1.27;;
13807;SDS011;40769;51.512;5.494;2022-12-29T07:29:59;4.25;;;1.42;;
13807;SDS011;40769;51.512;5.494;2022-12-29T07:32:25;2.20;;;1.15;;
13807;SDS011;40769;51.512;5.494;2022-12-29T07:34:51;3.80;;;1.60;;
13807;SDS011;40769;51.512;5.494;2022-12-29T07:37:16;3.60;;;1.40;;
13807;SDS011;40769;51.512;5.494;2022-12-29T07:39:43;4.25;;;1.55;;
13807;SDS011;40769;51.512;5.494;2022-12-29T07:42:08;3.40;;;1.40;;
13807;SDS011;40769;51.512;5.494;2022-12-29T07:44:34;3.90;;;1.50;;
13807;SDS011;40769;51.512;5.494;2022-12-29T07:47:01;4.57;;;2.00;;
13807;SDS011;40769;51.512;5.494;2022-12-29T07:49:27;4.72;;;1.98;;
13807;SDS011;40769;51.512;5.494;2022-12-29T07:51:53;3.70;;;1.40;;
13807;SDS011;40769;51.512;5.494;2022-12-29T07:54:18;3.55;;;1.60;;
13807;SDS011;40769;51.512;5.494;2022-12-29T07:56:44;4.70;;;1.70;;
13807;SDS011;40769;51.512;5.494;2022-12-29T07:59:10;5.45;;;1.10;;
13807;SDS011;40769;51.512;5.494;2022-12-29T08:01:37;2.80;;;1.30;;
13807;SDS011;40769;51.512;5.494;2022-12-29T08:04:03;3.63;;;1.33;;
13807;SDS011;40769;51.512;5.494;2022-12-29T08:06:29;3.97;;;1.63;;
13807;SDS011;40769;51.512;5.494;2022-12-29T08:08:55;3.22;;;1.20;;
13807;SDS011;40769;51.512;5.494;2022-12-29T08:11:22;3.10;;;1.70;;
13807;SDS011;40769;51.512;5.494;2022-12-29T08:13:47;4.38;;;1.55;;
13807;SDS011;40769;51.512;5.494;2022-12-29T08:16:13;3.88;;;1.60;;
13807;SDS011;40769;51.512;5.494;2022-12-29T08:18:39;6.15;;;1.40;;
13807;SDS011;40769;51.512;5.494;2022-12-29T08:21:05;4.82;;;1.95;;
13807;SDS011;40769;51.512;5.494;2022-12-29T08:23:31;2.60;;;1.35;;
13807;SDS011;40769;51.512;5.494;2022-12-29T08:26:00;6.13;;;1.50;;
13807;SDS011;40769;51.512;5.494;2022-12-29T08:28:27;6.88;;;1.70;;
13807;SDS011;40769;51.512;5.494;2022-12-29T08:30:53;3.13;;;1.33;;
13807;SDS011;40769;51.512;5.494;2022-12-29T08:33:21;4.85;;;1.55;;
13807;SDS011;40769;51.512;5.494;2022-12-29T08:35:47;4.22;;;1.50;;
13807;SDS011;40769;51.512;5.494;2022-12-29T08:38:13;4.75;;;1.70;;
13807;SDS011;40769;51.512;5.494;2022-12-29T08:40:38;2.97;;;1.52;;
13807;SDS011;40769;51.512;5.494;2022-12-29T08:43:04;3.55;;;1.40;;
13807;SDS011;40769;51.512;5.494;2022-12-29T08:45:30;4.45;;;1.30;;
13807;SDS011;40769;51.512;5.494;2022-12-29T08:47:56;3.50;;;1.55;;
13807;SDS011;40769;51.512;5.494;2022-12-29T08:50:22;3.90;;;1.63;;
13807;SDS011;40769;51.512;5.494;2022-12-29T08:52:47;4.57;;;1.20;;
13807;SDS011;40769;51.512;5.494;2022-12-29T08:55:13;3.83;;;1.17;;
13807;SDS011;40769;51.512;5.494;2022-12-29T08:57:39;4.00;;;2.08;;
13807;SDS011;40769;51.512;5.494;2022-12-29T09:00:04;4.45;;;1.40;;
13807;SDS011;40769;51.512;5.494;2022-12-29T09:02:31;4.85;;;1.60;;
13807;SDS011;40769;51.512;5.494;2022-12-29T09:04:59;4.05;;;1.50;;
13807;SDS011;40769;51.512;5.494;2022-12-29T09:07:25;6.88;;;1.73;;
13807;SDS011;40769;51.512;5.494;2022-12-29T09:09:51;4.57;;;1.27;;
13807;SDS011;40769;51.512;5.494;2022-12-29T09:12:17;5.38;;;1.50;;
13807;SDS011;40769;51.512;5.494;2022-12-29T09:14:43;5.88;;;1.77;;
13807;SDS011;40769;51.512;5.494;2022-12-29T09:17:09;2.97;;;1.20;;
13807;SDS011;40769;51.512;5.494;2022-12-29T09:19:54;5.57;;;1.40;;
13807;SDS011;40769;51.512;5.494;2022-12-29T09:22:19;2.40;;;1.50;;
13807;SDS011;40769;51.512;5.494;2022-12-29T09:24:45;5.47;;;1.58;;
13807;SDS011;40769;51.512;5.494;2022-12-29T09:27:11;2.78;;;1.50;;
13807;SDS011;40769;51.512;5.494;2022-12-29T09:29:37;3.40;;;1.35;;
13807;SDS011;40769;51.512;5.494;2022-12-29T09:32:03;4.32;;;1.65;;
13807;SDS011;40769;51.512;5.494;2022-12-29T09:34:29;2.72;;;1.40;;
13807;SDS011;40769;51.512;5.494;2022-12-29T09:36:55;3.97;;;1.58;;
13807;SDS011;40769;51.512;5.494;2022-12-29T09:39:21;3.25;;;1.30;;
13807;SDS011;40769;51.512;5.494;2022-12-29T09:46:52;3.72;;;1.35;;
13807;SDS011;40769;51.512;5.494;2022-12-29T09:49:24;4.72;;;1.48;;
13807;SDS011;40769;51.512;5.494;2022-12-29T09:52:08;2.65;;;1.48;;
13807;SDS011;40769;51.512;5.494;2022-12-29T09:54:57;4.95;;;1.80;;
13807;SDS011;40769;51.512;5.494;2022-12-29T09:57:52;4.70;;;1.40;;
13807;SDS011;40769;51.512;5.494;2022-12-29T10:00:23;2.92;;;1.30;;
13807;SDS011;40769;51.512;5.494;2022-12-29T10:03:13;4.43;;;1.50;;
13807;SDS011;40769;51.512;5.494;2022-12-29T10:08:16;3.75;;;1.40;;
13807;SDS011;40769;51.512;5.494;2022-12-29T10:11:19;4.53;;;1.80;;
13807;SDS011;40769;51.512;5.494;2022-12-29T10:16:56;2.17;;;1.23;;
13807;SDS011;40769;51.512;5.494;2022-12-29T10:24:50;3.65;;;1.30;;
13807;SDS011;40769;51.512;5.494;2022-12-29T10:27:19;3.40;;;1.48;;
13807;SDS011;40769;51.512;5.494;2022-12-29T10:29:51;3.63;;;1.27;;
13807;SDS011;40769;51.512;5.494;2022-12-29T10:32:25;3.42;;;1.38;;
13807;SDS011;40769;51.512;5.494;2022-12-29T10:38:27;4.05;;;1.60;;
13807;SDS011;40769;51.512;5.494;2022-12-29T10:41:08;3.15;;;1.33;;
13807;SDS011;40769;51.512;5.494;2022-12-29T10:43:44;4.70;;;1.60;;
13807;SDS011;40769;51.512;5.494;2022-12-29T10:46:13;3.65;;;1.40;;
13807;SDS011;40769;51.512;5.494;2022-12-29T10:48:42;4.10;;;1.33;;
13807;SDS011;40769;51.512;5.494;2022-12-29T10:51:10;3.85;;;1.40;;
13807;SDS011;40769;51.512;5.494;2022-12-29T10:53:55;5.00;;;1.60;;
13807;SDS011;40769;51.512;5.494;2022-12-29T10:56:40;4.25;;;1.60;;
13807;SDS011;40769;51.512;5.494;2022-12-29T11:01:49;4.18;;;1.80;;
13807;SDS011;40769;51.512;5.494;2022-12-29T11:04:35;3.03;;;1.40;;
13807;SDS011;40769;51.512;5.494;2022-12-29T11:07:03;3.83;;;1.63;;
13807;SDS011;40769;51.512;5.494;2022-12-29T11:09:32;3.38;;;1.70;;
13807;SDS011;40769;51.512;5.494;2022-12-29T11:12:04;3.17;;;1.42;;
13807;SDS011;40769;51.512;5.494;2022-12-29T11:17:51;2.75;;;1.58;;
13807;SDS011;40769;51.512;5.494;2022-12-29T11:23:00;4.03;;;1.70;;
13807;SDS011;40769;51.512;5.494;2022-12-29T11:25:27;3.78;;;2.10;;
13807;SDS011;40769;51.512;5.494;2022-12-29T11:28:00;5.00;;;2.25;;
13807;SDS011;40769;51.512;5.494;2022-12-29T11:30:28;6.45;;;2.03;;
13807;SDS011;40769;51.512;5.494;2022-12-29T11:32:56;4.22;;;1.80;;
13807;SDS011;40769;51.512;5.494;2022-12-29T11:35:30;4.30;;;1.52;;
13807;SDS011;40769;51.512;5.494;2022-12-29T11:37:58;4.28;;;1.67;;
13807;SDS011;40769;51.512;5.494;2022-12-29T11:40:26;3.78;;;1.90;;
13807;SDS011;40769;51.512;5.494;2022-12-29T11:42:57;3.65;;;1.80;;
13807;SDS011;40769;51.512;5.494;2022-12-29T11:45:27;3.40;;;1.70;;
13807;SDS011;40769;51.512;5.494;2022-12-29T11:48:07;3.90;;;1.67;;
13807;SDS011;40769;51.512;5.494;2022-12-29T11:50:48;3.67;;;1.52;;
13807;SDS011;40769;51.512;5.494;2022-12-29T11:53:24;3.28;;;1.65;;
13807;SDS011;40769;51.512;5.494;2022-12-29T11:56:16;3.72;;;1.42;;
13807;SDS011;40769;51.512;5.494;2022-12-29T11:58:45;5.50;;;1.98;;
13807;SDS011;40769;51.512;5.494;2022-12-29T12:04:10;4.75;;;1.80;;
13807;SDS011;40769;51.512;5.494;2022-12-29T12:06:43;2.75;;;1.65;;
13807;SDS011;40769;51.512;5.494;2022-12-29T12:09:28;5.22;;;2.10;;
13807;SDS011;40769;51.512;5.494;2022-12-29T12:11:57;4.82;;;2.00;;
13807;SDS011;40769;51.512;5.494;2022-12-29T12:14:41;4.88;;;2.05;;
13807;SDS011;40769;51.512;5.494;2022-12-29T12:17:18;5.35;;;1.92;;
13807;SDS011;40769;51.512;5.494;2022-12-29T12:19:58;3.97;;;1.98;;
13807;SDS011;40769;51.512;5.494;2022-12-29T12:22:44;3.55;;;1.80;;
13807;SDS011;40769;51.512;5.494;2022-12-29T12:25:20;8.25;;;2.15;;
13807;SDS011;40769;51.512;5.494;2022-12-29T12:27:51;4.45;;;1.92;;
13807;SDS011;40769;51.512;5.494;2022-12-29T12:30:43;3.75;;;1.85;;
13807;SDS011;40769;51.512;5.494;2022-12-29T12:33:18;6.45;;;1.88;;
13807;SDS011;40769;51.512;5.494;2022-12-29T12:45:16;4.32;;;1.65;;
13807;SDS011;40769;51.512;5.494;2022-12-29T12:53:26;5.15;;;1.88;;
13807;SDS011;40769;51.512;5.494;2022-12-29T12:59:25;3.25;;;1.45;;
13807;SDS011;40769;51.512;5.494;2022-12-29T13:10:07;4.05;;;1.70;;
13807;SDS011;40769;51.512;5.494;2022-12-29T13:12:52;4.32;;;1.42;;
13807;SDS011;40769;51.512;5.494;2022-12-29T13:21:03;4.28;;;1.85;;
13807;SDS011;40769;51.512;5.494;2022-12-29T13:23:47;4.78;;;1.65;;
13807;SDS011;40769;51.512;5.494;2022-12-29T13:26:39;4.20;;;1.73;;
13807;SDS011;40769;51.512;5.494;2022-12-29T13:37:16;2.88;;;1.30;;
13807;SDS011;40769;51.512;5.494;2022-12-29T13:42:19;5.10;;;1.95;;
13807;SDS011;40769;51.512;5.494;2022-12-29T13:44:51;4.15;;;1.90;;
13807;SDS011;40769;51.512;5.494;2022-12-29T13:47:44;4.00;;;1.77;;
13807;SDS011;40769;51.512;5.494;2022-12-29T13:50:32;3.33;;;1.70;;
13807;SDS011;40769;51.512;5.494;2022-12-29T13:53:11;4.38;;;1.65;;
13807;SDS011;40769;51.512;5.494;2022-12-29T13:55:53;4.75;;;1.80;;
13807;SDS011;40769;51.512;5.494;2022-12-29T13:58:41;3.75;;;1.80;;
13807;SDS011;40769;51.512;5.494;2022-12-29T14:03:42;3.95;;;1.67;;
13807;SDS011;40769;51.512;5.494;2022-12-29T14:06:17;4.22;;;1.63;;
13807;SDS011;40769;51.512;5.494;2022-12-29T14:08:45;3.17;;;1.70;;
13807;SDS011;40769;51.512;5.494;2022-12-29T14:11:12;6.72;;;2.00;;
13807;SDS011;40769;51.512;5.494;2022-12-29T14:13:41;3.70;;;1.80;;
13807;SDS011;40769;51.512;5.494;2022-12-29T14:16:24;5.10;;;1.60;;
13807;SDS011;40769;51.512;5.494;2022-12-29T14:18:52;3.38;;;2.08;;
13807;SDS011;40769;51.512;5.494;2022-12-29T14:21:20;5.00;;;2.10;;
13807;SDS011;40769;51.512;5.494;2022-12-29T14:23:52;5.20;;;1.90;;
13807;SDS011;40769;51.512;5.494;2022-12-29T14:28:53;2.58;;;2.03;;
13807;SDS011;40769;51.512;5.494;2022-12-29T14:45:22;4.78;;;2.28;;
13807;SDS011;40769;51.512;5.494;2022-12-29T14:50:05;4.18;;;1.92;;
13807;SDS011;40769;51.512;5.494;2022-12-29T14:52:47;2.65;;;1.50;;
13807;SDS011;40769;51.512;5.494;2022-12-29T14:55:45;3.97;;;1.63;;
13807;SDS011;40769;51.512;5.494;2022-12-29T14:58:20;3.88;;;1.80;;
13807;SDS011;40769;51.512;5.494;2022-12-29T15:00:46;5.50;;;2.28;;
13807;SDS011;40769;51.512;5.494;2022-12-29T15:03:28;5.18;;;2.05;;
13807;SDS011;40769;51.512;5.494;2022-12-29T15:06:09;4.70;;;2.20;;
13807;SDS011;40769;51.512;5.494;2022-12-29T15:08:39;5.57;;;2.25;;
13807;SDS011;40769;51.512;5.494;2022-12-29T15:11:20;3.50;;;1.77;;
13807;SDS011;40769;51.512;5.494;2022-12-29T15:13:49;3.90;;;1.70;;
13807;SDS011;40769;51.512;5.494;2022-12-29T15:16:25;4.97;;;1.98;;
13807;SDS011;40769;51.512;5.494;2022-12-29T15:18:51;3.47;;;1.50;;
13807;SDS011;40769;51.512;5.494;2022-12-29T15:21:20;2.17;;;1.42;;
13807;SDS011;40769;51.512;5.494;2022-12-29T15:23:51;3.00;;;1.50;;
13807;SDS011;40769;51.512;5.494;2022-12-29T15:26:17;3.92;;;1.30;;
13807;SDS011;40769;51.512;5.494;2022-12-29T15:28:49;2.40;;;1.33;;
13807;SDS011;40769;51.512;5.494;2022-12-29T15:31:23;3.67;;;1.40;;
13807;SDS011;40769;51.512;5.494;2022-12-29T15:33:51;3.08;;;1.25;;
13807;SDS011;40769;51.512;5.494;2022-12-29T15:36:23;1.95;;;1.10;;
13807;SDS011;40769;51.512;5.494;2022-12-29T15:38:51;1.83;;;0.98;;
13807;SDS011;40769;51.512;5.494;2022-12-29T15:46:26;1.48;;;1.08;;
13807;SDS011;40769;51.512;5.494;2022-12-29T15:48:54;3.22;;;1.20;;
13807;SDS011;40769;51.512;5.494;2022-12-29T15:51:28;2.53;;;1.23;;
13807;SDS011;40769;51.512;5.494;2022-12-29T15:53:58;2.03;;;1.30;;
13807;SDS011;40769;51.512;5.494;2022-12-29T15:56:24;3.38;;;1.63;;
13807;SDS011;40769;51.512;5.494;2022-12-29T15:58:53;2.67;;;1.55;;
13807;SDS011;40769;51.512;5.494;2022-12-29T16:01:34;3.33;;;1.45;;
13807;SDS011;40769;51.512;5.494;2022-12-29T16:04:05;2.55;;;1.30;;
13807;SDS011;40769;51.512;5.494;2022-12-29T16:06:36;3.67;;;1.67;;
13807;SDS011;40769;51.512;5.494;2022-12-29T16:09:04;1.92;;;1.20;;
13807;SDS011;40769;51.512;5.494;2022-12-29T16:11:38;2.78;;;1.20;;
13807;SDS011;40769;51.512;5.494;2022-12-29T16:14:06;2.95;;;1.45;;
13807;SDS011;40769;51.512;5.494;2022-12-29T16:16:38;2.40;;;1.00;;
13807;SDS011;40769;51.512;5.494;2022-12-29T16:19:13;5.32;;;2.08;;
13807;SDS011;40769;51.512;5.494;2022-12-29T16:21:59;3.63;;;2.08;;
13807;SDS011;40769;51.512;5.494;2022-12-29T16:24:28;3.90;;;1.60;;
13807;SDS011;40769;51.512;5.494;2022-12-29T16:29:41;2.55;;;1.45;;
13807;SDS011;40769;51.512;5.494;2022-12-29T16:32:29;2.83;;;1.65;;
13807;SDS011;40769;51.512;5.494;2022-12-29T16:37:44;4.93;;;1.42;;
13807;SDS011;40769;51.512;5.494;2022-12-29T16:40:29;2.15;;;1.40;;
13807;SDS011;40769;51.512;5.494;2022-12-29T16:42:57;3.72;;;1.50;;
13807;SDS011;40769;51.512;5.494;2022-12-29T16:45:38;2.97;;;1.50;;
13807;SDS011;40769;51.512;5.494;2022-12-29T16:48:21;3.03;;;2.00;;
13807;SDS011;40769;51.512;5.494;2022-12-29T16:51:04;3.55;;;1.92;;
13807;SDS011;40769;51.512;5.494;2022-12-29T16:53:37;2.85;;;1.83;;
13807;SDS011;40769;51.512;5.494;2022-12-29T16:56:07;3.25;;;1.50;;
13807;SDS011;40769;51.512;5.494;2022-12-29T16:58:39;4.03;;;1.70;;
13807;SDS011;40769;51.512;5.494;2022-12-29T17:01:10;4.72;;;2.45;;
13807;SDS011;40769;51.512;5.494;2022-12-29T17:03:40;5.32;;;2.05;;
13807;SDS011;40769;51.512;5.494;2022-12-29T17:06:14;3.83;;;1.92;;
13807;SDS011;40769;51.512;5.494;2022-12-29T17:08:44;2.50;;;1.30;;
13807;SDS011;40769;51.512;5.494;2022-12-29T17:11:21;3.35;;;1.70;;
13807;SDS011;40769;51.512;5.494;2022-12-29T17:16:59;3.35;;;1.70;;
13807;SDS011;40769;51.512;5.494;2022-12-29T17:19:29;3.80;;;1.85;;
13807;SDS011;40769;51.512;5.494;2022-12-29T17:22:00;7.15;;;2.75;;
13807;SDS011;40769;51.512;5.494;2022-12-29T17:24:26;4.40;;;2.35;;
13807;SDS011;40769;51.512;5.494;2022-12-29T17:26:53;4.57;;;2.20;;
13807;SDS011;40769;51.512;5.494;2022-12-29T17:29:35;5.35;;;2.95;;